sensor_id;sensor_type;location;lat;lon;timestamp;P1;durP1;ratioP1;P2;durP2;ratioP2
47896;SDS011;39629;51.400;5.494;2023-03-02T00:04:36;7.53;;;3.50;;
47896;SDS011;39629;51.400;5.494;2023-03-02T00:09:44;9.50;;;3.78;;
47896;SDS011;39629;51.400;5.494;2023-03-02T00:14:45;8.20;;;3.60;;
47896;SDS011;39629;51.400;5.494;2023-03-02T00:19:48;7.57;;;3.53;;
47896;SDS011;39629;51.400;5.494;2023-03-02T00:24:50;9.25;;;3.70;;
47896;SDS011;39629;51.400;5.494;2023-03-02T00:29:51;6.85;;;3.78;;
47896;SDS011;39629;51.400;5.494;2023-03-02T00:34:55;7.65;;;3.38;;
47896;SDS011;39629;51.400;5.494;2023-03-02T00:39:57;7.10;;;3.28;;
47896;SDS011;39629;51.400;5.494;2023-03-02T00:44:59;8.38;;;4.00;;
47896;SDS011;39629;51.400;5.494;2023-03-02T00:50:02;9.27;;;4.20;;
47896;SDS011;39629;51.400;5.494;2023-03-02T00:55:05;8.40;;;3.63;;
47896;SDS011;39629;51.400;5.494;2023-03-02T01:00:09;9.20;;;4.30;;
47896;SDS011;39629;51.400;5.494;2023-03-02T01:05:14;8.40;;;3.95;;
47896;SDS011;39629;51.400;5.494;2023-03-02T01:10:16;8.87;;;4.10;;
47896;SDS011;39629;51.400;5.494;2023-03-02T01:15:18;9.50;;;3.97;;
47896;SDS011;39629;51.400;5.494;2023-03-02T01:20:21;8.57;;;3.60;;
47896;SDS011;39629;51.400;5.494;2023-03-02T01:25:22;10.40;;;4.00;;
47896;SDS011;39629;51.400;5.494;2023-03-02T01:30:24;10.27;;;4.10;;
47896;SDS011;39629;51.400;5.494;2023-03-02T01:35:27;6.28;;;3.13;;
47896;SDS011;39629;51.400;5.494;2023-03-02T01:40:29;7.20;;;3.33;;
47896;SDS011;39629;51.400;5.494;2023-03-02T01:45:43;7.20;;;3.70;;
47896;SDS011;39629;51.400;5.494;2023-03-02T01:50:53;9.75;;;4.03;;
47896;SDS011;39629;51.400;5.494;2023-03-02T01:55:55;9.27;;;3.65;;
47896;SDS011;39629;51.400;5.494;2023-03-02T02:00:58;9.77;;;3.90;;
47896;SDS011;39629;51.400;5.494;2023-03-02T02:06:05;6.28;;;2.88;;
47896;SDS011;39629;51.400;5.494;2023-03-02T02:11:17;10.27;;;3.90;;
47896;SDS011;39629;51.400;5.494;2023-03-02T02:16:23;6.82;;;3.30;;
47896;SDS011;39629;51.400;5.494;2023-03-02T02:21:26;9.25;;;4.10;;
47896;SDS011;39629;51.400;5.494;2023-03-02T02:26:31;10.65;;;4.03;;
47896;SDS011;39629;51.400;5.494;2023-03-02T02:31:38;10.45;;;3.70;;
47896;SDS011;39629;51.400;5.494;2023-03-02T02:36:45;9.13;;;3.70;;
47896;SDS011;39629;51.400;5.494;2023-03-02T02:41:53;8.32;;;3.75;;
47896;SDS011;39629;51.400;5.494;2023-03-02T02:47:01;8.52;;;3.75;;
47896;SDS011;39629;51.400;5.494;2023-03-02T02:52:03;9.20;;;4.25;;
47896;SDS011;39629;51.400;5.494;2023-03-02T02:57:08;8.43;;;3.75;;
47896;SDS011;39629;51.400;5.494;2023-03-02T03:02:14;9.60;;;4.47;;
47896;SDS011;39629;51.400;5.494;2023-03-02T03:07:20;9.25;;;3.97;;
47896;SDS011;39629;51.400;5.494;2023-03-02T03:12:26;9.63;;;4.22;;
47896;SDS011;39629;51.400;5.494;2023-03-02T03:17:29;10.90;;;4.45;;
47896;SDS011;39629;51.400;5.494;2023-03-02T03:22:34;8.43;;;4.30;;
47896;SDS011;39629;51.400;5.494;2023-03-02T03:27:38;10.70;;;4.75;;
47896;SDS011;39629;51.400;5.494;2023-03-02T03:32:42;8.25;;;3.92;;
47896;SDS011;39629;51.400;5.494;2023-03-02T03:37:44;11.77;;;5.00;;
47896;SDS011;39629;51.400;5.494;2023-03-02T03:42:50;12.50;;;5.07;;
47896;SDS011;39629;51.400;5.494;2023-03-02T03:47:52;12.95;;;5.30;;
47896;SDS011;39629;51.400;5.494;2023-03-02T03:52:53;12.30;;;5.50;;
47896;SDS011;39629;51.400;5.494;2023-03-02T03:58:01;14.73;;;5.47;;
47896;SDS011;39629;51.400;5.494;2023-03-02T04:03:03;13.93;;;5.15;;
47896;SDS011;39629;51.400;5.494;2023-03-02T04:08:06;14.88;;;6.15;;
47896;SDS011;39629;51.400;5.494;2023-03-02T04:13:09;15.32;;;6.22;;
47896;SDS011;39629;51.400;5.494;2023-03-02T04:18:11;13.80;;;6.22;;
47896;SDS011;39629;51.400;5.494;2023-03-02T04:23:13;12.95;;;5.65;;
47896;SDS011;39629;51.400;5.494;2023-03-02T04:28:16;15.52;;;6.03;;
47896;SDS011;39629;51.400;5.494;2023-03-02T04:33:18;16.10;;;6.57;;
47896;SDS011;39629;51.400;5.494;2023-03-02T04:38:21;16.50;;;6.72;;
47896;SDS011;39629;51.400;5.494;2023-03-02T04:43:25;17.58;;;6.80;;
47896;SDS011;39629;51.400;5.494;2023-03-02T04:48:26;15.75;;;6.43;;
47896;SDS011;39629;51.400;5.494;2023-03-02T04:53:28;17.55;;;7.03;;
47896;SDS011;39629;51.400;5.494;2023-03-02T04:58:31;15.00;;;6.05;;
47896;SDS011;39629;51.400;5.494;2023-03-02T05:03:33;16.15;;;7.45;;
47896;SDS011;39629;51.400;5.494;2023-03-02T05:08:35;16.63;;;6.22;;
47896;SDS011;39629;51.400;5.494;2023-03-02T05:13:38;15.95;;;6.78;;
47896;SDS011;39629;51.400;5.494;2023-03-02T05:18:40;18.02;;;7.40;;
47896;SDS011;39629;51.400;5.494;2023-03-02T05:23:42;18.15;;;7.05;;
47896;SDS011;39629;51.400;5.494;2023-03-02T05:28:45;15.82;;;6.43;;
47896;SDS011;39629;51.400;5.494;2023-03-02T05:33:47;16.83;;;6.90;;
47896;SDS011;39629;51.400;5.494;2023-03-02T05:38:49;15.95;;;7.05;;
47896;SDS011;39629;51.400;5.494;2023-03-02T05:43:52;19.48;;;7.40;;
47896;SDS011;39629;51.400;5.494;2023-03-02T05:48:53;22.30;;;8.00;;
47896;SDS011;39629;51.400;5.494;2023-03-02T05:53:55;24.00;;;8.65;;
47896;SDS011;39629;51.400;5.494;2023-03-02T05:58:58;23.77;;;8.48;;
47896;SDS011;39629;51.400;5.494;2023-03-02T06:04:00;22.80;;;8.48;;
47896;SDS011;39629;51.400;5.494;2023-03-02T06:09:01;23.58;;;8.95;;
47896;SDS011;39629;51.400;5.494;2023-03-02T06:14:04;26.40;;;10.43;;
47896;SDS011;39629;51.400;5.494;2023-03-02T06:19:06;28.23;;;9.10;;
47896;SDS011;39629;51.400;5.494;2023-03-02T06:24:08;28.15;;;10.27;;
47896;SDS011;39629;51.400;5.494;2023-03-02T06:29:11;21.88;;;8.63;;
47896;SDS011;39629;51.400;5.494;2023-03-02T06:34:12;28.98;;;10.35;;
47896;SDS011;39629;51.400;5.494;2023-03-02T06:39:14;20.88;;;7.88;;
47896;SDS011;39629;51.400;5.494;2023-03-02T06:44:17;30.02;;;11.13;;
47896;SDS011;39629;51.400;5.494;2023-03-02T06:49:19;28.55;;;11.50;;
47896;SDS011;39629;51.400;5.494;2023-03-02T06:54:20;24.40;;;8.45;;
47896;SDS011;39629;51.400;5.494;2023-03-02T06:59:24;24.55;;;9.27;;
47896;SDS011;39629;51.400;5.494;2023-03-02T07:04:26;34.47;;;11.05;;
47896;SDS011;39629;51.400;5.494;2023-03-02T07:09:28;34.03;;;11.93;;
47896;SDS011;39629;51.400;5.494;2023-03-02T07:14:34;35.13;;;12.10;;
47896;SDS011;39629;51.400;5.494;2023-03-02T07:19:36;31.85;;;12.63;;
47896;SDS011;39629;51.400;5.494;2023-03-02T07:24:38;34.03;;;12.15;;
47896;SDS011;39629;51.400;5.494;2023-03-02T07:29:41;35.30;;;13.15;;
47896;SDS011;39629;51.400;5.494;2023-03-02T07:34:43;29.90;;;11.73;;
47896;SDS011;39629;51.400;5.494;2023-03-02T07:39:45;29.83;;;9.40;;
47896;SDS011;39629;51.400;5.494;2023-03-02T07:44:50;24.42;;;9.18;;
47896;SDS011;39629;51.400;5.494;2023-03-02T07:49:52;31.10;;;12.45;;
47896;SDS011;39629;51.400;5.494;2023-03-02T07:54:53;28.65;;;11.52;;
47896;SDS011;39629;51.400;5.494;2023-03-02T07:59:56;30.02;;;11.32;;
47896;SDS011;39629;51.400;5.494;2023-03-02T08:04:58;30.35;;;10.85;;
47896;SDS011;39629;51.400;5.494;2023-03-02T08:10:00;21.80;;;8.27;;
47896;SDS011;39629;51.400;5.494;2023-03-02T08:15:03;33.03;;;11.88;;
47896;SDS011;39629;51.400;5.494;2023-03-02T08:20:06;24.98;;;10.02;;
47896;SDS011;39629;51.400;5.494;2023-03-02T08:25:08;29.20;;;11.43;;
47896;SDS011;39629;51.400;5.494;2023-03-02T08:30:11;27.05;;;11.50;;
47896;SDS011;39629;51.400;5.494;2023-03-02T08:35:14;25.30;;;10.25;;
47896;SDS011;39629;51.400;5.494;2023-03-02T08:40:16;24.23;;;9.60;;
47896;SDS011;39629;51.400;5.494;2023-03-02T08:45:19;21.88;;;9.18;;
47896;SDS011;39629;51.400;5.494;2023-03-02T08:50:21;22.92;;;8.85;;
47896;SDS011;39629;51.400;5.494;2023-03-02T08:55:22;23.15;;;8.75;;
47896;SDS011;39629;51.400;5.494;2023-03-02T09:00:25;22.52;;;9.57;;
47896;SDS011;39629;51.400;5.494;2023-03-02T09:05:27;21.45;;;7.97;;
47896;SDS011;39629;51.400;5.494;2023-03-02T09:10:28;16.55;;;7.28;;
47896;SDS011;39629;51.400;5.494;2023-03-02T09:15:31;21.70;;;8.98;;
47896;SDS011;39629;51.400;5.494;2023-03-02T09:20:33;19.33;;;7.75;;
47896;SDS011;39629;51.400;5.494;2023-03-02T09:25:34;17.45;;;7.30;;
47896;SDS011;39629;51.400;5.494;2023-03-02T09:30:37;18.15;;;8.40;;
47896;SDS011;39629;51.400;5.494;2023-03-02T09:35:39;17.38;;;7.80;;
47896;SDS011;39629;51.400;5.494;2023-03-02T09:40:49;17.20;;;8.00;;
47896;SDS011;39629;51.400;5.494;2023-03-02T09:46:14;18.00;;;8.10;;
47896;SDS011;39629;51.400;5.494;2023-03-02T09:51:24;19.20;;;8.07;;
47896;SDS011;39629;51.400;5.494;2023-03-02T09:56:32;19.38;;;8.80;;
47896;SDS011;39629;51.400;5.494;2023-03-02T10:01:39;17.85;;;7.75;;
47896;SDS011;39629;51.400;5.494;2023-03-02T10:06:46;10.25;;;4.75;;
47896;SDS011;39629;51.400;5.494;2023-03-02T10:11:51;17.67;;;7.90;;
47896;SDS011;39629;51.400;5.494;2023-03-02T10:17:06;16.55;;;7.65;;
47896;SDS011;39629;51.400;5.494;2023-03-02T10:22:25;16.52;;;7.72;;
47896;SDS011;39629;51.400;5.494;2023-03-02T10:27:32;16.08;;;7.40;;
47896;SDS011;39629;51.400;5.494;2023-03-02T10:32:41;14.70;;;7.22;;
47896;SDS011;39629;51.400;5.494;2023-03-02T10:37:45;15.20;;;7.18;;
47896;SDS011;39629;51.400;5.494;2023-03-02T10:42:48;14.45;;;7.20;;
47896;SDS011;39629;51.400;5.494;2023-03-02T10:47:59;14.75;;;6.60;;
47896;SDS011;39629;51.400;5.494;2023-03-02T10:53:01;15.90;;;7.78;;
47896;SDS011;39629;51.400;5.494;2023-03-02T10:58:20;13.60;;;6.70;;
47896;SDS011;39629;51.400;5.494;2023-03-02T11:03:26;15.10;;;7.55;;
47896;SDS011;39629;51.400;5.494;2023-03-02T11:08:28;13.48;;;6.85;;
47896;SDS011;39629;51.400;5.494;2023-03-02T11:13:32;15.93;;;7.57;;
47896;SDS011;39629;51.400;5.494;2023-03-02T11:18:37;15.30;;;7.67;;
47896;SDS011;39629;51.400;5.494;2023-03-02T11:23:46;13.23;;;7.60;;
47896;SDS011;39629;51.400;5.494;2023-03-02T11:28:58;17.58;;;7.72;;
47896;SDS011;39629;51.400;5.494;2023-03-02T11:39:31;13.37;;;6.70;;
47896;SDS011;39629;51.400;5.494;2023-03-02T11:44:41;15.15;;;7.70;;
47896;SDS011;39629;51.400;5.494;2023-03-02T11:49:45;14.88;;;7.00;;
47896;SDS011;39629;51.400;5.494;2023-03-02T11:54:52;13.45;;;7.55;;
47896;SDS011;39629;51.400;5.494;2023-03-02T11:59:57;13.68;;;6.93;;
47896;SDS011;39629;51.400;5.494;2023-03-02T12:05:03;13.57;;;6.93;;
47896;SDS011;39629;51.400;5.494;2023-03-02T12:10:07;12.75;;;6.53;;
47896;SDS011;39629;51.400;5.494;2023-03-02T12:15:28;14.73;;;6.65;;
47896;SDS011;39629;51.400;5.494;2023-03-02T12:20:37;14.20;;;6.60;;
47896;SDS011;39629;51.400;5.494;2023-03-02T12:25:42;11.80;;;6.55;;
47896;SDS011;39629;51.400;5.494;2023-03-02T12:30:54;12.52;;;6.65;;
47896;SDS011;39629;51.400;5.494;2023-03-02T12:36:03;12.50;;;6.30;;
47896;SDS011;39629;51.400;5.494;2023-03-02T12:41:28;10.48;;;5.60;;
47896;SDS011;39629;51.400;5.494;2023-03-02T12:46:47;11.52;;;7.00;;
47896;SDS011;39629;51.400;5.494;2023-03-02T12:51:52;12.35;;;6.47;;
47896;SDS011;39629;51.400;5.494;2023-03-02T12:57:03;11.65;;;6.50;;
47896;SDS011;39629;51.400;5.494;2023-03-02T13:02:12;12.27;;;5.68;;
47896;SDS011;39629;51.400;5.494;2023-03-02T13:07:17;11.05;;;5.78;;
47896;SDS011;39629;51.400;5.494;2023-03-02T13:12:23;11.63;;;6.30;;
47896;SDS011;39629;51.400;5.494;2023-03-02T13:17:27;9.73;;;5.93;;
47896;SDS011;39629;51.400;5.494;2023-03-02T13:22:31;11.27;;;6.73;;
47896;SDS011;39629;51.400;5.494;2023-03-02T13:27:33;12.27;;;5.70;;
47896;SDS011;39629;51.400;5.494;2023-03-02T13:32:37;12.18;;;6.35;;
47896;SDS011;39629;51.400;5.494;2023-03-02T13:37:41;10.32;;;5.90;;
47896;SDS011;39629;51.400;5.494;2023-03-02T13:42:44;9.82;;;5.57;;
47896;SDS011;39629;51.400;5.494;2023-03-02T13:47:45;10.68;;;5.88;;
47896;SDS011;39629;51.400;5.494;2023-03-02T13:52:48;9.18;;;4.72;;
47896;SDS011;39629;51.400;5.494;2023-03-02T13:57:51;9.43;;;5.63;;
47896;SDS011;39629;51.400;5.494;2023-03-02T14:02:53;8.60;;;5.00;;
47896;SDS011;39629;51.400;5.494;2023-03-02T14:07:56;9.32;;;5.45;;
47896;SDS011;39629;51.400;5.494;2023-03-02T14:12:59;8.93;;;4.68;;
47896;SDS011;39629;51.400;5.494;2023-03-02T14:18:07;9.23;;;5.07;;
47896;SDS011;39629;51.400;5.494;2023-03-02T14:23:23;8.80;;;4.90;;
47896;SDS011;39629;51.400;5.494;2023-03-02T14:28:27;10.65;;;5.75;;
47896;SDS011;39629;51.400;5.494;2023-03-02T14:33:31;10.15;;;4.80;;
47896;SDS011;39629;51.400;5.494;2023-03-02T14:38:35;9.02;;;4.97;;
47896;SDS011;39629;51.400;5.494;2023-03-02T14:43:36;10.75;;;4.97;;
47896;SDS011;39629;51.400;5.494;2023-03-02T14:48:38;9.48;;;4.63;;
47896;SDS011;39629;51.400;5.494;2023-03-02T14:53:41;10.85;;;4.97;;
47896;SDS011;39629;51.400;5.494;2023-03-02T14:58:42;10.32;;;5.40;;
47896;SDS011;39629;51.400;5.494;2023-03-02T15:03:44;10.32;;;5.50;;
47896;SDS011;39629;51.400;5.494;2023-03-02T15:08:47;8.48;;;5.18;;
47896;SDS011;39629;51.400;5.494;2023-03-02T15:13:49;8.65;;;4.95;;
47896;SDS011;39629;51.400;5.494;2023-03-02T15:18:51;9.68;;;5.00;;
47896;SDS011;39629;51.400;5.494;2023-03-02T15:23:54;8.18;;;4.60;;
47896;SDS011;39629;51.400;5.494;2023-03-02T15:28:55;10.82;;;4.63;;
47896;SDS011;39629;51.400;5.494;2023-03-02T15:33:57;8.35;;;4.88;;
47896;SDS011;39629;51.400;5.494;2023-03-02T15:39:00;8.38;;;4.32;;
47896;SDS011;39629;51.400;5.494;2023-03-02T15:44:02;10.90;;;4.95;;
47896;SDS011;39629;51.400;5.494;2023-03-02T15:49:03;8.55;;;4.68;;
47896;SDS011;39629;51.400;5.494;2023-03-02T15:54:06;11.48;;;5.25;;
47896;SDS011;39629;51.400;5.494;2023-03-02T15:59:10;9.20;;;5.20;;
47896;SDS011;39629;51.400;5.494;2023-03-02T16:04:11;9.75;;;5.38;;
47896;SDS011;39629;51.400;5.494;2023-03-02T16:09:14;11.00;;;4.95;;
47896;SDS011;39629;51.400;5.494;2023-03-02T16:14:17;10.00;;;5.33;;
47896;SDS011;39629;51.400;5.494;2023-03-02T16:19:18;8.40;;;4.28;;
47896;SDS011;39629;51.400;5.494;2023-03-02T16:24:21;10.50;;;4.63;;
47896;SDS011;39629;51.400;5.494;2023-03-02T16:29:23;10.27;;;5.15;;
47896;SDS011;39629;51.400;5.494;2023-03-02T16:34:25;9.40;;;4.85;;
47896;SDS011;39629;51.400;5.494;2023-03-02T16:39:28;10.20;;;4.82;;
47896;SDS011;39629;51.400;5.494;2023-03-02T16:44:29;9.63;;;4.97;;
47896;SDS011;39629;51.400;5.494;2023-03-02T16:49:31;8.85;;;4.85;;
47896;SDS011;39629;51.400;5.494;2023-03-02T16:54:34;7.93;;;4.15;;
47896;SDS011;39629;51.400;5.494;2023-03-02T16:59:35;8.23;;;4.30;;
47896;SDS011;39629;51.400;5.494;2023-03-02T17:04:37;9.60;;;5.07;;
47896;SDS011;39629;51.400;5.494;2023-03-02T17:09:40;10.90;;;4.65;;
47896;SDS011;39629;51.400;5.494;2023-03-02T17:14:42;10.45;;;4.85;;
47896;SDS011;39629;51.400;5.494;2023-03-02T17:19:43;8.55;;;4.53;;
47896;SDS011;39629;51.400;5.494;2023-03-02T17:24:46;8.70;;;4.50;;
47896;SDS011;39629;51.400;5.494;2023-03-02T17:29:48;7.55;;;4.28;;
47896;SDS011;39629;51.400;5.494;2023-03-02T17:34:50;10.05;;;4.97;;
47896;SDS011;39629;51.400;5.494;2023-03-02T17:39:53;12.15;;;5.68;;
47896;SDS011;39629;51.400;5.494;2023-03-02T17:44:54;12.95;;;5.68;;
47896;SDS011;39629;51.400;5.494;2023-03-02T17:49:56;12.20;;;5.82;;
47896;SDS011;39629;51.400;5.494;2023-03-02T17:54:59;12.55;;;5.95;;
47896;SDS011;39629;51.400;5.494;2023-03-02T18:00:00;14.55;;;5.82;;
47896;SDS011;39629;51.400;5.494;2023-03-02T18:05:05;14.32;;;6.95;;
47896;SDS011;39629;51.400;5.494;2023-03-02T18:10:10;13.48;;;6.65;;
47896;SDS011;39629;51.400;5.494;2023-03-02T18:15:13;15.35;;;6.75;;
47896;SDS011;39629;51.400;5.494;2023-03-02T18:20:14;14.57;;;6.90;;
47896;SDS011;39629;51.400;5.494;2023-03-02T18:25:17;16.45;;;7.22;;
47896;SDS011;39629;51.400;5.494;2023-03-02T18:30:19;16.25;;;6.50;;
47896;SDS011;39629;51.400;5.494;2023-03-02T18:35:22;14.85;;;6.60;;
47896;SDS011;39629;51.400;5.494;2023-03-02T18:40:25;15.82;;;6.90;;
47896;SDS011;39629;51.400;5.494;2023-03-02T18:45:28;16.10;;;6.97;;
47896;SDS011;39629;51.400;5.494;2023-03-02T18:50:30;14.15;;;6.50;;
47896;SDS011;39629;51.400;5.494;2023-03-02T18:55:33;18.80;;;7.57;;
47896;SDS011;39629;51.400;5.494;2023-03-02T19:00:36;17.55;;;8.18;;
47896;SDS011;39629;51.400;5.494;2023-03-02T19:05:37;16.55;;;7.13;;
47896;SDS011;39629;51.400;5.494;2023-03-02T19:10:40;17.08;;;7.20;;
47896;SDS011;39629;51.400;5.494;2023-03-02T19:15:42;17.25;;;7.05;;
47896;SDS011;39629;51.400;5.494;2023-03-02T19:20:44;16.75;;;8.02;;
47896;SDS011;39629;51.400;5.494;2023-03-02T19:25:48;17.45;;;7.53;;
47896;SDS011;39629;51.400;5.494;2023-03-02T19:30:50;20.33;;;8.52;;
47896;SDS011;39629;51.400;5.494;2023-03-02T19:35:52;18.38;;;8.52;;
47896;SDS011;39629;51.400;5.494;2023-03-02T19:40:55;20.45;;;8.90;;
47896;SDS011;39629;51.400;5.494;2023-03-02T19:45:57;19.67;;;9.25;;
47896;SDS011;39629;51.400;5.494;2023-03-02T19:50:59;20.33;;;9.40;;
47896;SDS011;39629;51.400;5.494;2023-03-02T19:56:03;20.20;;;9.38;;
47896;SDS011;39629;51.400;5.494;2023-03-02T20:01:07;18.95;;;7.47;;
47896;SDS011;39629;51.400;5.494;2023-03-02T20:06:08;21.70;;;9.57;;
47896;SDS011;39629;51.400;5.494;2023-03-02T20:11:11;21.48;;;9.18;;
47896;SDS011;39629;51.400;5.494;2023-03-02T20:16:13;21.42;;;9.65;;
47896;SDS011;39629;51.400;5.494;2023-03-02T20:21:15;20.27;;;9.10;;
47896;SDS011;39629;51.400;5.494;2023-03-02T20:26:18;24.35;;;9.73;;
47896;SDS011;39629;51.400;5.494;2023-03-02T20:31:21;20.73;;;9.55;;
47896;SDS011;39629;51.400;5.494;2023-03-02T20:36:24;21.95;;;10.52;;
47896;SDS011;39629;51.400;5.494;2023-03-02T20:41:29;19.50;;;8.65;;
47896;SDS011;39629;51.400;5.494;2023-03-02T20:46:32;22.90;;;10.35;;
47896;SDS011;39629;51.400;5.494;2023-03-02T20:51:37;21.95;;;9.45;;
47896;SDS011;39629;51.400;5.494;2023-03-02T20:56:42;22.75;;;10.63;;
47896;SDS011;39629;51.400;5.494;2023-03-02T21:01:43;25.20;;;10.40;;
47896;SDS011;39629;51.400;5.494;2023-03-02T21:06:45;25.08;;;10.85;;
47896;SDS011;39629;51.400;5.494;2023-03-02T21:11:49;23.48;;;9.77;;
47896;SDS011;39629;51.400;5.494;2023-03-02T21:16:50;23.30;;;9.98;;
47896;SDS011;39629;51.400;5.494;2023-03-02T21:21:52;22.13;;;9.80;;
47896;SDS011;39629;51.400;5.494;2023-03-02T21:26:55;25.23;;;10.43;;
47896;SDS011;39629;51.400;5.494;2023-03-02T21:31:57;19.50;;;8.07;;
47896;SDS011;39629;51.400;5.494;2023-03-02T21:36:59;25.80;;;11.27;;
47896;SDS011;39629;51.400;5.494;2023-03-02T21:42:02;21.63;;;8.88;;
47896;SDS011;39629;51.400;5.494;2023-03-02T21:47:04;23.77;;;10.93;;
47896;SDS011;39629;51.400;5.494;2023-03-02T21:52:05;22.60;;;8.95;;
47896;SDS011;39629;51.400;5.494;2023-03-02T21:57:09;21.08;;;8.57;;
47896;SDS011;39629;51.400;5.494;2023-03-02T22:02:11;20.17;;;8.10;;
47896;SDS011;39629;51.400;5.494;2023-03-02T22:07:13;18.33;;;8.35;;
47896;SDS011;39629;51.400;5.494;2023-03-02T22:12:21;19.38;;;7.93;;
47896;SDS011;39629;51.400;5.494;2023-03-02T22:17:23;21.20;;;8.77;;
47896;SDS011;39629;51.400;5.494;2023-03-02T22:22:25;16.80;;;7.38;;
47896;SDS011;39629;51.400;5.494;2023-03-02T22:32:34;21.85;;;8.52;;
47896;SDS011;39629;51.400;5.494;2023-03-02T22:37:36;22.02;;;8.65;;
47896;SDS011;39629;51.400;5.494;2023-03-02T22:42:39;23.63;;;9.02;;
47896;SDS011;39629;51.400;5.494;2023-03-02T22:47:41;18.20;;;7.72;;
47896;SDS011;39629;51.400;5.494;2023-03-02T22:52:44;22.02;;;9.57;;
47896;SDS011;39629;51.400;5.494;2023-03-02T22:57:47;23.45;;;9.30;;
47896;SDS011;39629;51.400;5.494;2023-03-02T23:02:48;21.90;;;8.90;;
47896;SDS011;39629;51.400;5.494;2023-03-02T23:07:52;23.10;;;9.57;;
47896;SDS011;39629;51.400;5.494;2023-03-02T23:13:02;19.63;;;8.02;;
47896;SDS011;39629;51.400;5.494;2023-03-02T23:18:08;24.20;;;9.10;;
47896;SDS011;39629;51.400;5.494;2023-03-02T23:23:17;21.48;;;8.73;;
47896;SDS011;39629;51.400;5.494;2023-03-02T23:28:21;19.55;;;8.07;;
47896;SDS011;39629;51.400;5.494;2023-03-02T23:33:23;22.10;;;9.15;;
47896;SDS011;39629;51.400;5.494;2023-03-02T23:38:24;22.52;;;8.82;;
47896;SDS011;39629;51.400;5.494;2023-03-02T23:43:27;20.13;;;8.38;;
47896;SDS011;39629;51.400;5.494;2023-03-02T23:48:29;22.02;;;8.93;;
47896;SDS011;39629;51.400;5.494;2023-03-02T23:53:31;23.33;;;9.73;;
47896;SDS011;39629;51.400;5.494;2023-03-02T23:58:34;25.30;;;9.48;;
